createdAt,value
2023-02-04T00:01:29.841Z,1.70
2023-02-04T00:04:31.323Z,1.77
2023-02-04T00:07:32.815Z,1.92
2023-02-04T00:10:34.473Z,1.35
2023-02-04T00:13:36.119Z,1.58
2023-02-04T00:16:37.563Z,1.90
2023-02-04T00:19:40.800Z,1.90
2023-02-04T00:22:42.322Z,2.40
2023-02-04T00:25:43.794Z,1.73
2023-02-04T00:28:45.327Z,1.92
2023-02-04T00:31:46.855Z,1.88
2023-02-04T00:34:48.388Z,2.20
2023-02-04T00:37:50.658Z,2.10
2023-02-04T00:40:52.511Z,2.38
2023-02-04T00:43:53.967Z,2.10
2023-02-04T00:46:55.563Z,2.85
2023-02-04T00:49:57.431Z,2.63
2023-02-04T00:53:01.841Z,2.70
2023-02-04T00:56:04.763Z,2.22
2023-02-04T00:59:06.260Z,2.97
2023-02-04T01:02:07.802Z,2.45
2023-02-04T01:05:10.404Z,2.40
2023-02-04T01:08:12.309Z,2.30
2023-02-04T01:11:13.803Z,2.22
2023-02-04T01:14:15.373Z,2.00
2023-02-04T01:17:18.365Z,2.03
2023-02-04T01:20:21.404Z,2.00
2023-02-04T01:23:23.646Z,2.03
2023-02-04T01:26:25.298Z,2.25
2023-02-04T01:29:28.611Z,2.20
2023-02-04T01:32:30.053Z,2.22
2023-02-04T01:35:31.557Z,2.83
2023-02-04T01:38:33.025Z,2.10
2023-02-04T01:41:34.601Z,2.60
2023-02-04T01:44:36.293Z,2.35
2023-02-04T01:47:38.509Z,2.28
2023-02-04T01:50:40.852Z,2.47
2023-02-04T01:53:42.889Z,2.78
2023-02-04T01:56:47.757Z,2.75
2023-02-04T01:59:52.921Z,2.75
2023-02-04T02:02:56.373Z,2.70
2023-02-04T02:05:58.342Z,2.80
2023-02-04T02:09:01.674Z,3.00
2023-02-04T02:12:04.346Z,3.20
2023-02-04T02:15:07.723Z,3.10
2023-02-04T02:18:10.552Z,3.45
2023-02-04T02:21:16.167Z,3.00
2023-02-04T02:24:23.766Z,2.53
2023-02-04T02:27:27.471Z,3.08
2023-02-04T02:30:29.580Z,2.97
2023-02-04T02:33:31.567Z,3.03
2023-02-04T02:36:33.134Z,3.00
2023-02-04T02:39:36.521Z,2.83
2023-02-04T02:42:38.497Z,2.87
2023-02-04T02:45:40.055Z,3.00
2023-02-04T02:48:41.722Z,3.05
2023-02-04T02:51:44.200Z,3.03
2023-02-04T02:54:46.446Z,3.60
2023-02-04T03:00:53.383Z,3.10
2023-02-04T03:03:55.788Z,2.58
2023-02-04T03:06:57.644Z,2.83
2023-02-04T03:09:59.244Z,2.90
2023-02-04T03:13:00.839Z,3.05
2023-02-04T03:16:03.519Z,2.83
2023-02-04T03:19:06.967Z,2.63
2023-02-04T03:22:08.886Z,2.67
2023-02-04T03:25:10.421Z,2.95
2023-02-04T03:28:12.048Z,2.78
2023-02-04T03:31:13.673Z,3.08
2023-02-04T03:34:15.159Z,3.15
2023-02-04T03:37:16.630Z,3.33
2023-02-04T03:40:18.264Z,3.67
2023-02-04T03:43:19.770Z,3.50
2023-02-04T03:46:23.642Z,3.53
2023-02-04T03:49:26.225Z,3.47
2023-02-04T03:52:27.748Z,3.38
2023-02-04T03:55:29.300Z,3.75
2023-02-04T03:58:30.790Z,3.35
2023-02-04T04:01:32.584Z,3.13
2023-02-04T04:04:34.132Z,3.00
2023-02-04T04:07:35.612Z,3.00
2023-02-04T04:10:37.116Z,3.25
2023-02-04T04:13:38.679Z,2.83
2023-02-04T04:16:40.152Z,3.10
2023-02-04T04:19:41.639Z,3.45
2023-02-04T04:22:43.170Z,3.17
2023-02-04T04:25:44.674Z,3.72
2023-02-04T04:28:46.239Z,3.60
2023-02-04T04:31:47.937Z,3.67
2023-02-04T04:34:49.518Z,3.95
2023-02-04T04:37:51.030Z,3.83
2023-02-04T04:40:52.487Z,4.25
2023-02-04T04:43:53.906Z,3.97
2023-02-04T04:46:55.498Z,4.30
2023-02-04T04:49:57.028Z,4.45
2023-02-04T04:52:58.544Z,4.28
2023-02-04T04:55:59.984Z,4.22
2023-02-04T04:59:01.451Z,4.07
2023-02-04T05:02:02.911Z,4.50
2023-02-04T05:05:04.630Z,4.55
2023-02-04T05:08:13.002Z,4.53
2023-02-04T05:11:14.457Z,4.70
2023-02-04T05:14:15.880Z,4.75
2023-02-04T05:17:17.361Z,4.30
2023-02-04T05:20:18.999Z,5.32
2023-02-04T05:23:20.522Z,4.70
2023-02-04T05:26:29.780Z,9.38
2023-02-04T05:29:31.865Z,6.88
2023-02-04T05:32:33.364Z,6.10
2023-02-04T05:35:34.819Z,5.90
2023-02-04T05:38:36.236Z,5.30
2023-02-04T05:41:37.771Z,4.63
2023-02-04T05:44:39.258Z,4.60
2023-02-04T05:47:40.783Z,5.15
2023-02-04T05:50:42.271Z,4.60
2023-02-04T05:53:43.806Z,4.40
2023-02-04T05:56:46.889Z,4.60
2023-02-04T05:59:48.427Z,4.25
2023-02-04T06:02:49.920Z,4.40
2023-02-04T06:05:51.415Z,4.32
2023-02-04T06:08:52.869Z,4.55
2023-02-04T06:11:54.366Z,4.35
2023-02-04T06:14:56.128Z,4.20
2023-02-04T06:17:58.494Z,4.57
2023-02-04T06:21:00.008Z,4.50
2023-02-04T06:24:01.526Z,4.40
2023-02-04T06:27:03.046Z,4.50
2023-02-04T06:30:05.032Z,4.65
2023-02-04T06:33:06.526Z,4.65
2023-02-04T06:36:08.141Z,4.28
2023-02-04T06:39:09.690Z,4.03
2023-02-04T06:42:11.164Z,4.57
2023-02-04T06:45:12.690Z,3.53
2023-02-04T06:48:14.147Z,3.40
2023-02-04T06:51:15.574Z,3.40
2023-02-04T06:54:17.961Z,3.33
2023-02-04T06:57:19.405Z,3.20
2023-02-04T07:00:21.090Z,2.72
2023-02-04T07:03:22.510Z,3.20
2023-02-04T07:06:23.935Z,2.67
2023-02-04T07:09:25.905Z,2.33
2023-02-04T07:12:27.381Z,2.17
2023-02-04T07:15:28.993Z,2.88
2023-02-04T07:18:30.516Z,2.70
2023-02-04T07:21:31.999Z,2.65
2023-02-04T07:24:33.479Z,2.53
2023-02-04T07:27:34.905Z,2.80
2023-02-04T07:30:36.608Z,3.03
2023-02-04T07:33:38.795Z,2.22
2023-02-04T07:36:40.996Z,2.92
2023-02-04T07:39:42.486Z,2.50
2023-02-04T07:42:44.240Z,2.95
2023-02-04T07:45:51.408Z,2.40
2023-02-04T07:48:52.995Z,3.22
2023-02-04T07:51:54.627Z,2.92
2023-02-04T07:54:56.056Z,2.72
2023-02-04T07:57:57.895Z,2.22
2023-02-04T08:00:59.663Z,2.15
2023-02-04T08:04:01.177Z,2.75
2023-02-04T08:07:02.691Z,2.40
2023-02-04T08:10:05.322Z,1.95
2023-02-04T08:13:06.943Z,2.05
2023-02-04T08:16:09.364Z,1.08
2023-02-04T08:19:12.647Z,2.05
2023-02-04T08:22:14.230Z,1.58
2023-02-04T08:25:16.246Z,2.15
2023-02-04T08:28:18.123Z,2.78
2023-02-04T08:31:19.700Z,2.15
2023-02-04T08:34:21.306Z,1.42
2023-02-04T08:37:22.807Z,2.50
2023-02-04T08:40:24.258Z,3.70
2023-02-04T08:43:26.798Z,5.07
2023-02-04T08:46:28.396Z,7.20
2023-02-04T08:49:29.981Z,9.15
2023-02-04T08:52:31.514Z,10.18
2023-02-04T08:55:33.027Z,7.78
2023-02-04T08:58:35.099Z,7.22
2023-02-04T09:01:36.595Z,8.20
2023-02-04T09:04:38.164Z,8.38
2023-02-04T09:07:39.602Z,6.63
2023-02-04T09:10:41.286Z,7.32
2023-02-04T09:13:42.770Z,6.30
2023-02-04T09:16:44.350Z,7.63
2023-02-04T09:19:46.011Z,7.75
2023-02-04T09:22:50.264Z,5.97
2023-02-04T09:25:51.749Z,6.47
2023-02-04T09:28:53.416Z,6.10
2023-02-04T09:31:54.991Z,5.93
2023-02-04T09:34:56.544Z,6.10
2023-02-04T09:37:58.025Z,5.65
2023-02-04T09:41:06.437Z,4.53
2023-02-04T09:44:16.481Z,4.90
2023-02-04T09:47:23.778Z,4.60
2023-02-04T09:50:28.182Z,4.22
2023-02-04T09:53:30.185Z,3.92
2023-02-04T09:56:32.146Z,4.05
2023-02-04T09:59:33.621Z,3.97
2023-02-04T10:02:35.196Z,4.50
2023-02-04T10:05:37.277Z,4.85
2023-02-04T10:08:40.070Z,5.13
2023-02-04T10:11:42.859Z,4.28
2023-02-04T10:14:44.668Z,4.80
2023-02-04T10:17:52.414Z,4.80
2023-02-04T10:21:14.832Z,3.90
2023-02-04T10:24:19.911Z,4.10
2023-02-04T10:27:21.513Z,3.95
2023-02-04T10:30:31.283Z,3.25
2023-02-04T10:33:35.326Z,3.42
2023-02-04T10:36:37.120Z,2.90
2023-02-04T10:39:43.252Z,2.83
2023-02-04T10:42:50.115Z,2.50
2023-02-04T10:46:04.563Z,2.95
2023-02-04T10:52:21.480Z,3.40
2023-02-04T10:55:24.198Z,3.13
2023-02-04T10:58:31.328Z,2.90
2023-02-04T11:01:32.957Z,2.00
2023-02-04T11:04:34.521Z,2.05
2023-02-04T11:07:36.029Z,1.85
2023-02-04T11:10:37.530Z,1.52
2023-02-04T11:13:50.010Z,2.42
2023-02-04T11:16:51.614Z,1.70
2023-02-04T11:19:53.061Z,2.00
2023-02-04T11:22:54.727Z,1.83
2023-02-04T11:26:19.084Z,1.83
2023-02-04T11:29:26.478Z,3.10
2023-02-04T11:32:37.933Z,2.97
2023-02-04T11:35:39.548Z,3.30
2023-02-04T11:38:46.962Z,2.90
2023-02-04T11:41:48.453Z,3.35
2023-02-04T11:44:59.789Z,3.30
2023-02-04T11:48:04.393Z,3.38
2023-02-04T11:51:15.252Z,3.70
2023-02-04T11:54:19.256Z,3.20
2023-02-04T12:00:25.517Z,3.10
2023-02-04T12:03:34.145Z,2.90
2023-02-04T12:06:37.047Z,3.00
2023-02-04T12:09:47.525Z,2.95
2023-02-04T12:12:52.104Z,3.97
2023-02-04T12:16:02.560Z,3.03
2023-02-04T12:19:04.073Z,3.47
2023-02-04T12:22:05.554Z,2.72
2023-02-04T12:25:07.641Z,3.22
2023-02-04T12:28:09.192Z,3.40
2023-02-04T12:31:10.881Z,3.17
2023-02-04T12:34:12.562Z,3.30
2023-02-04T12:37:14.069Z,2.85
2023-02-04T12:40:17.275Z,3.10
2023-02-04T12:43:18.817Z,3.23
2023-02-04T12:46:20.328Z,3.22
2023-02-04T12:49:24.207Z,3.00
2023-02-04T12:52:25.705Z,3.67
2023-02-04T12:55:29.254Z,3.20
2023-02-04T12:58:30.835Z,3.80
2023-02-04T13:01:33.623Z,2.72
2023-02-04T13:04:36.336Z,3.22
2023-02-04T13:07:40.701Z,2.85
2023-02-04T13:10:42.825Z,3.20
2023-02-04T13:13:44.316Z,4.38
2023-02-04T13:16:45.798Z,3.35
2023-02-04T13:19:47.372Z,3.50
2023-02-04T13:22:48.912Z,3.20
2023-02-04T13:25:50.410Z,3.58
2023-02-04T13:28:51.920Z,4.05
2023-02-04T13:31:53.448Z,4.10
2023-02-04T13:34:54.951Z,4.20
2023-02-04T13:37:56.675Z,4.05
2023-02-04T13:40:58.164Z,3.78
2023-02-04T13:43:59.714Z,4.28
2023-02-04T13:47:01.266Z,5.03
2023-02-04T13:50:02.832Z,4.78
2023-02-04T13:53:04.308Z,5.72
2023-02-04T13:56:05.980Z,4.90
2023-02-04T13:59:07.544Z,6.07
2023-02-04T14:02:09.675Z,5.53
2023-02-04T14:05:11.221Z,7.07
2023-02-04T14:08:12.667Z,6.50
2023-02-04T14:11:14.227Z,6.95
2023-02-04T14:14:15.974Z,6.10
2023-02-04T14:17:17.559Z,6.13
2023-02-04T14:20:19.106Z,5.68
2023-02-04T14:23:20.591Z,5.28
2023-02-04T14:26:22.056Z,6.05
2023-02-04T14:29:23.609Z,5.95
2023-02-04T14:32:25.108Z,6.65
2023-02-04T14:35:27.038Z,5.38
2023-02-04T14:38:30.892Z,5.50
2023-02-04T14:41:32.485Z,5.57
2023-02-04T14:44:33.920Z,5.15
2023-02-04T14:47:36.410Z,5.60
2023-02-04T14:50:37.914Z,6.10
2023-02-04T14:53:42.354Z,6.65
2023-02-04T14:56:47.735Z,6.07
2023-02-04T14:59:49.176Z,6.47
2023-02-04T15:02:50.680Z,5.82
2023-02-04T15:05:52.206Z,6.38
2023-02-04T15:08:53.846Z,6.60
2023-02-04T15:11:55.927Z,7.05
2023-02-04T15:14:57.431Z,7.38
2023-02-04T15:17:58.939Z,6.63
2023-02-04T15:21:00.589Z,5.75
2023-02-04T15:24:02.191Z,5.95
2023-02-04T15:27:03.765Z,5.88
2023-02-04T15:30:05.467Z,6.32
2023-02-04T15:33:06.907Z,6.95
2023-02-04T15:36:08.586Z,5.82
2023-02-04T15:39:10.083Z,6.60
2023-02-04T15:42:11.613Z,6.78
2023-02-04T15:45:13.161Z,6.22
2023-02-04T15:48:15.539Z,7.10
2023-02-04T15:51:17.358Z,14.50
2023-02-04T15:54:18.891Z,14.70
2023-02-04T15:57:20.386Z,10.70
2023-02-04T16:00:22.818Z,9.73
2023-02-04T16:03:25.516Z,13.38
2023-02-04T16:06:27.175Z,16.30
2023-02-04T16:09:28.633Z,11.98
2023-02-04T16:12:30.161Z,18.33
2023-02-04T16:15:32.246Z,24.65
2023-02-04T16:18:34.055Z,20.05
2023-02-04T16:21:35.559Z,38.92
2023-02-04T16:24:38.506Z,25.65
2023-02-04T16:27:40.171Z,26.42
2023-02-04T16:30:41.615Z,20.02
2023-02-04T16:33:43.077Z,23.35
2023-02-04T16:36:44.545Z,16.02
2023-02-04T16:39:46.027Z,18.10
2023-02-04T16:42:47.601Z,17.20
2023-02-04T16:45:49.166Z,12.57
2023-02-04T16:48:50.672Z,16.55
2023-02-04T16:51:52.136Z,18.30
2023-02-04T16:54:53.728Z,23.33
2023-02-04T16:57:55.601Z,17.90
2023-02-04T17:00:57.593Z,15.02
2023-02-04T17:03:59.217Z,17.48
2023-02-04T17:07:00.772Z,26.38
2023-02-04T17:10:02.328Z,34.08
2023-02-04T17:13:03.826Z,33.65
2023-02-04T17:16:05.695Z,43.25
2023-02-04T17:19:07.382Z,29.73
2023-02-04T17:22:08.842Z,18.67
2023-02-04T17:25:10.338Z,14.98
2023-02-04T17:28:11.877Z,15.82
2023-02-04T17:31:13.973Z,13.20
2023-02-04T17:34:15.506Z,20.83
2023-02-04T17:37:17.013Z,17.15
2023-02-04T17:40:18.550Z,16.15
2023-02-04T17:43:19.988Z,16.42
2023-02-04T17:46:21.659Z,15.32
2023-02-04T17:49:23.149Z,16.50
2023-02-04T17:52:26.623Z,20.25
2023-02-04T17:55:30.657Z,20.75
2023-02-04T17:58:32.976Z,10.38
2023-02-04T18:01:34.598Z,9.10
2023-02-04T18:04:36.532Z,9.18
2023-02-04T18:07:38.058Z,16.00
2023-02-04T18:10:43.371Z,17.23
2023-02-04T18:13:45.044Z,13.50
2023-02-04T18:16:46.691Z,13.95
2023-02-04T18:19:48.189Z,11.73
2023-02-04T18:22:55.449Z,9.52
2023-02-04T18:26:10.626Z,7.82
2023-02-04T18:29:43.000Z,8.02
2023-02-04T18:32:44.483Z,8.15
2023-02-04T18:35:50.290Z,10.60
2023-02-04T18:38:51.785Z,13.32
2023-02-04T18:41:53.302Z,13.27
2023-02-04T18:44:56.696Z,11.68
2023-02-04T18:48:00.858Z,9.27
2023-02-04T18:54:48.668Z,8.75
2023-02-04T18:57:50.177Z,9.73
2023-02-04T19:01:27.567Z,10.30
2023-02-04T19:04:33.222Z,10.95
2023-02-04T19:07:35.733Z,10.90
2023-02-04T19:10:39.665Z,12.23
2023-02-04T19:13:42.259Z,9.45
2023-02-04T19:16:44.500Z,11.38
2023-02-04T19:20:00.896Z,11.30
2023-02-04T19:23:02.383Z,13.20
2023-02-04T19:26:23.979Z,12.55
2023-02-04T19:29:27.457Z,12.73
2023-02-04T19:32:38.159Z,10.27
2023-02-04T19:35:45.098Z,9.32
2023-02-04T19:38:48.001Z,9.80
2023-02-04T19:41:52.075Z,11.45
2023-02-04T19:44:53.664Z,10.88
2023-02-04T19:47:56.616Z,10.43
2023-02-04T19:50:58.711Z,11.30
2023-02-04T19:54:11.648Z,12.32
2023-02-04T19:57:25.962Z,13.55
2023-02-04T20:00:33.558Z,11.60
2023-02-04T20:03:45.989Z,10.90
2023-02-04T20:06:47.899Z,12.05
2023-02-04T20:09:54.748Z,12.70
2023-02-04T20:13:00.613Z,11.50
2023-02-04T20:16:04.059Z,11.40
2023-02-04T20:19:42.451Z,12.50
2023-02-04T20:22:52.568Z,14.40
2023-02-04T20:25:55.015Z,23.13
2023-02-04T20:28:56.554Z,13.27
2023-02-04T20:31:58.060Z,14.75
2023-02-04T20:35:14.493Z,17.25
2023-02-04T20:38:18.277Z,10.60
2023-02-04T20:41:21.170Z,10.05
2023-02-04T20:44:36.499Z,10.75
2023-02-04T20:47:38.102Z,10.30
2023-02-04T20:50:48.091Z,11.77
2023-02-04T20:53:55.340Z,11.70
2023-02-04T20:57:09.684Z,14.07
2023-02-04T21:00:15.834Z,10.05
2023-02-04T21:03:37.497Z,13.38
2023-02-04T21:06:38.959Z,16.42
2023-02-04T21:09:40.468Z,14.07
2023-02-04T21:12:45.681Z,16.48
2023-02-04T21:15:47.614Z,12.13
2023-02-04T21:18:50.616Z,16.10
2023-02-04T21:21:52.885Z,24.73
2023-02-04T21:24:54.471Z,28.10
2023-02-04T21:27:56.777Z,21.83
2023-02-04T21:30:59.316Z,7.90
2023-02-04T21:34:01.005Z,8.68
2023-02-04T21:37:02.490Z,7.47
2023-02-04T21:40:04.405Z,8.05
2023-02-04T21:43:07.967Z,15.23
2023-02-04T21:46:09.466Z,12.35
2023-02-04T21:49:11.019Z,10.82
2023-02-04T21:52:13.247Z,9.50
2023-02-04T21:55:17.286Z,9.48
2023-02-04T21:58:18.793Z,8.32
2023-02-04T22:01:20.279Z,8.30
2023-02-04T22:04:21.776Z,8.23
2023-02-04T22:07:23.504Z,8.02
2023-02-04T22:10:25.994Z,8.27
2023-02-04T22:13:27.567Z,8.18
2023-02-04T22:16:29.065Z,11.45
2023-02-04T22:19:30.610Z,8.90
2023-02-04T22:22:32.184Z,9.18
2023-02-04T22:25:33.965Z,12.75
2023-02-04T22:28:35.632Z,15.75
2023-02-04T22:31:37.224Z,17.42
2023-02-04T22:34:38.859Z,14.32
2023-02-04T22:37:41.899Z,13.38
2023-02-04T22:40:43.345Z,11.57
2023-02-04T22:43:44.797Z,10.15
2023-02-04T22:46:47.565Z,8.27
2023-02-04T22:49:49.244Z,11.60
2023-02-04T22:52:50.762Z,11.55
2023-02-04T22:55:52.274Z,10.23
2023-02-04T22:58:54.055Z,9.02
2023-02-04T23:01:56.289Z,10.38
2023-02-04T23:04:57.867Z,7.13
2023-02-04T23:07:59.328Z,8.23
2023-02-04T23:11:00.770Z,7.57
2023-02-04T23:14:02.296Z,7.25
2023-02-04T23:17:03.799Z,6.38
2023-02-04T23:20:05.738Z,6.00
2023-02-04T23:23:08.391Z,6.13
2023-02-04T23:26:09.968Z,5.97
2023-02-04T23:29:11.401Z,6.60
2023-02-04T23:32:12.823Z,5.60
2023-02-04T23:35:14.336Z,6.00
2023-02-04T23:38:16.059Z,6.05
2023-02-04T23:41:17.527Z,5.75
2023-02-04T23:44:19.034Z,5.28
2023-02-04T23:47:20.605Z,7.13
2023-02-04T23:50:22.125Z,6.05
2023-02-04T23:53:24.271Z,12.75
2023-02-04T23:56:25.790Z,15.20
2023-02-04T23:59:27.480Z,13.23
